Robertsport/Cape Mount Airport

Jump to: basic info | weather | comments

Related pages: nearby airports | nearby navaids | notams | map

Basic information (top)

Codes: GLCM
Location: lon 6.800000, lat -11.367000, elev 10 ft / 3 m msl
Status: small_airport

Weather (top)

Current conditions for Roberts International Airport 69nm (128km) ESE (rec'd 2014/08/27 12:00Z):

GLRB 271200Z 00000KT 6000 -DZ FEW006 BKN014 25/24 Q1014 TEMPO DZ

Airport forecast for Roberts International Airport 69nm (128km) ESE (rec'd 2014/08/27 12:51Z):

TAF GLRB 271000Z 2712/2818 25012KT 6000 RA SCT004 OVC014 FEW24CB 
      BECMG 2713/2715 20014KT 9000 BKN016 FEW026CB 
      TEMPO 2716/2720 24010KT 5000 RA BKN004 OVC014 FEW025CB 
      BECMG 2721/2723 18010KT 9000 BKN013

Latest comments (top)

No comments yet for Robertsport/Cape Mount Airport

More... (top)

See also NOTAMs and nearby airports and navaids, or visit the Robertsport/Cape Mount Airport page at the main OurAirports website..